Flight Track Log - Related Links

Times and Time Zones

All times are in EST time to prevent confusion due to time zone crossing. See the MPE478 flight status page for this flight to view local times or setup timezone preferences in your user account.

Time Position Orientation Groundspeed Altitude Reporting Facility
EST Latitude Longitude Course Direction KTS MPH feet Rate Location/Type
Fri 02:19:10 PM 62.4500 -114.4833 30° Northeast 10 12 700  Level Edmonton Center
Fri 02:20:10 PM 62.4667 -114.4833 360° North 100 115 1,700 1,059 Climbing Edmonton Center
Fri 02:21:09 PM 62.5167 -114.5000 351° North 150 173 2,800 1,261 Climbing Edmonton Center
Fri 02:22:09 PM 62.5500 -114.4833 13° North 150 173 4,200 1,350 Climbing Edmonton Center
Fri 02:23:09 PM 62.6000 -114.4167 32° Northeast 160 184 5,500 1,300 Climbing Edmonton Center
Fri 02:24:09 PM 62.6333 -114.4000 13° North 160 184 6,800 1,300 Climbing Edmonton Center
Fri 02:25:00 PM 62.8188 -114.0473 30° Northeast  Level FlightAware Approximate
Fri 02:25:09 PM 62.6667 -114.3333 43° Northeast 170 196 8,100  Level Edmonton Center
Fri 02:26:09 PM 62.7167 -114.3167 North 170 196 9,300 1,100 Climbing Edmonton Center
Fri 02:27:09 PM 62.7667 -114.2500 31° Northeast 180 207 10,300 1,100 Climbing Edmonton Center
Fri 02:28:09 PM 62.8167 -114.1833 31° Northeast 180 207 11,500 1,200 Climbing Edmonton Center
Fri 02:29:09 PM 62.8500 -114.1333 34° Northeast 190 219 12,700 1,250 Climbing Edmonton Center
Fri 02:30:09 PM 62.9000 -114.1000 17° North 180 207 14,000 1,250 Climbing Edmonton Center
Fri 02:31:09 PM 62.9500 -114.0333 31° Northeast 180 207 15,200 1,200 Climbing Edmonton Center
Fri 02:32:09 PM 63.0000 -113.9833 24° Northeast 180 207 16,400 1,150 Climbing Edmonton Center
Fri 02:33:09 PM 63.0333 -113.9500 24° Northeast 180 207 17,500 900 Climbing Edmonton Center
Fri 02:34:09 PM 63.1000 -113.9000 19° North 190 219 18,200 950 Climbing Edmonton Center
Fri 02:35:09 PM 63.1500 -113.8333 31° Northeast 190 219 19,400 1,100 Climbing Edmonton Center
Fri 02:36:09 PM 63.1833 -113.7667 42° Northeast 190 219 20,400 950 Climbing Edmonton Center
Fri 02:37:09 PM 63.2333 -113.7167 24° Northeast 190 219 21,300 900 Climbing Edmonton Center
Fri 02:38:09 PM 63.3000 -113.7000 North 200 230 22,200 900 Climbing Edmonton Center
Fri 02:39:09 PM 63.3333 -113.6333 42° Northeast 200 230 23,100 850 Climbing Edmonton Center
Fri 02:40:09 PM 63.3833 -113.5667 31° Northeast 200 230 23,900 750 Climbing Edmonton Center
Fri 02:41:09 PM 63.4333 -113.5000 31° Northeast 200 230 24,600 550 Climbing Edmonton Center
Fri 02:42:09 PM 63.5000 -113.4500 19° North 200 230 25,000 200 Climbing Edmonton Center
Fri 02:43:09 PM 63.5500 -113.3833 31° Northeast 220 253 25,000  Level Edmonton Center
Fri 02:44:09 PM 63.6000 -113.3333 24° Northeast 240 276 25,000  Level Edmonton Center
Fri 02:45:09 PM 63.6667 -113.2333 34° Northeast 250 288 25,000  Level Edmonton Center
Fri 02:46:09 PM 63.7333 -113.1667 24° Northeast 250 288 25,000  Level Edmonton Center
Fri 02:47:09 PM 63.7833 -113.1000 30° Northeast 260 299 25,000  Level Edmonton Center
Fri 02:48:09 PM 63.8667 -113.0167 24° Northeast 260 299 25,000  Level Edmonton Center
Fri 02:49:09 PM 63.9333 -112.9167 33° Northeast 260 299 25,000  Level Edmonton Center
Fri 02:50:09 PM 63.9833 -112.8500 30° Northeast 260 299 25,000  Level Edmonton Center
Fri 02:51:09 PM 64.0667 -112.8000 15° North 260 299 25,000  Level Edmonton Center
Fri 02:52:09 PM 64.1333 -112.7000 33° Northeast 260 299 25,000  Level Edmonton Center
Fri 02:53:09 PM 64.1833 -112.6333 30° Northeast 260 299 25,000  Level Edmonton Center
Fri 02:54:09 PM 64.2667 -112.5333 28° Northeast 260 299 25,000  Level Edmonton Center
Fri 02:55:09 PM 64.3167 -112.4667 30° Northeast 260 299 25,000  Level Edmonton Center
Fri 02:56:09 PM 64.3833 -112.3833 28° Northeast 260 299 25,000  Level Edmonton Center
Fri 02:57:09 PM 64.4500 -112.3167 23° Northeast 260 299 25,000  Level Edmonton Center
Fri 02:58:09 PM 64.5167 -112.2500 23° Northeast 260 299 25,000  Level Edmonton Center
Fri 02:59:09 PM 64.5667 -112.1500 41° Northeast 260 299 25,000  Level Edmonton Center
Fri 03:00:09 PM 64.6333 -112.0833 23° Northeast 260 299 25,000  Level Edmonton Center
Fri 03:01:09 PM 64.7167 -111.9833 27° Northeast 260 299 25,000  Level Edmonton Center
Fri 03:02:09 PM 64.7667 -111.9167 30° Northeast 260 299 25,000  Level Edmonton Center
Fri 03:03:09 PM 64.8333 -111.8167 33° Northeast 260 299 25,000  Level Edmonton Center
Fri 03:04:09 PM 64.9000 -111.7500 23° Northeast 260 299 25,000  Level Edmonton Center
Fri 03:05:09 PM 64.9667 -111.6500 32° Northeast 260 299 25,000  Level Edmonton Center
Fri 03:06:09 PM 65.0167 -111.5833 29° Northeast 260 299 25,000  Level Edmonton Center
Fri 03:07:09 PM 65.1000 -111.5167 19° North 260 299 25,000  Level Edmonton Center
Fri 03:08:09 PM 65.1500 -111.4167 40° Northeast 260 299 25,000  Level Edmonton Center
Fri 03:09:09 PM 65.2167 -111.3500 23° Northeast 260 299 25,000  Level Edmonton Center
Fri 03:10:09 PM 65.2667 -111.2333 44° Northeast 260 299 25,000  Level Edmonton Center
Fri 03:12:00 PM 65.3735 -111.0882 30° Northeast  Level FlightAware Approximate
Fri 03:19:00 PM 65.7762 -110.5280 30° Northeast  Level FlightAware Approximate
Fri 03:20:00 PM 65.8336 -110.4466 30° Northeast  Level FlightAware Approximate
Fri 03:21:00 PM 65.8909 -110.3647 30° Northeast  Level FlightAware Approximate
Fri 03:22:00 PM 65.9482 -110.2826 30° Northeast  Level FlightAware Approximate
Fri 03:23:00 PM 66.0054 -110.2000 30° Northeast  Level FlightAware Approximate
Fri 03:24:00 PM 66.0626 -110.1171 30° Northeast  Level FlightAware Approximate
Fri 03:25:00 PM 66.1198 -110.0338 31° Northeast  Level FlightAware Approximate
Fri 03:26:00 PM 66.1769 -109.9501 31° Northeast  Level FlightAware Approximate
Fri 03:27:00 PM 66.2339 -109.8661 31° Northeast  Level FlightAware Approximate
Fri 03:28:00 PM 66.2909 -109.7816 31° Northeast  Level FlightAware Approximate
Fri 03:29:00 PM 66.3479 -109.6968 31° Northeast  Level FlightAware Approximate
Fri 03:30:00 PM 66.4048 -109.6116 31° Northeast  Level FlightAware Approximate
Fri 03:31:00 PM 66.4617 -109.5260 31° Northeast  Level FlightAware Approximate
Fri 03:32:00 PM 66.5185 -109.4401 31° Northeast  Level FlightAware Approximate
Fri 03:33:00 PM 66.5753 -109.3537 31° Northeast  Level FlightAware Approximate
Fri 03:34:00 PM 66.6320 -109.2669 31° Northeast  Level FlightAware Approximate
Fri 03:35:00 PM 66.6887 -109.1797 31° Northeast  Level FlightAware Approximate
Fri 03:36:00 PM 66.7454 -109.0922 31° Northeast  Level FlightAware Approximate
Fri 03:37:00 PM 66.8020 -109.0042 31° Northeast  Level FlightAware Approximate
Fri 03:38:00 PM 66.8585 -108.9158 32° Northeast  Level FlightAware Approximate
Fri 03:39:00 PM 66.9150 -108.8270 32° Northeast  Level FlightAware Approximate
Fri 03:40:00 PM 66.9714 -108.7378 32° Northeast  Level FlightAware Approximate
Fri 03:41:00 PM 67.0278 -108.6482 32° Northeast  Level FlightAware Approximate
Fri 03:42:00 PM 67.0842 -108.5582 32° Northeast  Level FlightAware Approximate
Fri 03:43:00 PM 67.1404 -108.4678 32° Northeast  Level FlightAware Approximate
Fri 03:44:00 PM 67.1967 -108.3769 32° Northeast  Level FlightAware Approximate
Fri 03:45:00 PM 67.2529 -108.2856 32° Northeast  Level FlightAware Approximate
Fri 03:46:00 PM 67.3090 -108.1939 32° Northeast  Level FlightAware Approximate
Fri 03:47:00 PM 67.3651 -108.1017 32° Northeast  Level FlightAware Approximate
Fri 03:48:00 PM 67.4211 -108.0091 32° Northeast  Level FlightAware Approximate
Fri 03:49:00 PM 67.4771 -107.9161 32° Northeast  Level FlightAware Approximate
Fri 03:50:00 PM 67.5330 -107.8226 33° Northeast  Level FlightAware Approximate
Fri 03:51:00 PM 67.5889 -107.7287 33° Northeast  Level FlightAware Approximate
Fri 03:52:00 PM 67.6447 -107.6344 33° Northeast  Level FlightAware Approximate
Fri 03:53:00 PM 67.7004 -107.5396 33° Northeast  Level FlightAware Approximate
Fri 03:54:00 PM 67.7561 -107.4439 33° Northeast  Level FlightAware Approximate
Fri 03:55:00 PM 67.8116 -107.3477 33° Northeast  Level FlightAware Approximate
Fri 03:56:00 PM 67.8671 -107.2509 33° Northeast  Level FlightAware Approximate
Fri 03:57:00 PM 67.9225 -107.1537 33° Northeast  Level FlightAware Approximate
Fri 03:58:00 PM 67.9778 -107.0560 33° Northeast  Level FlightAware Approximate
Fri 03:59:00 PM 68.0334 -106.9593 33° Northeast  Level FlightAware Approximate
Fri 04:00:00 PM 68.0892 -106.8631 33° Northeast  Level FlightAware Approximate
Fri 04:01:00 PM 68.1449 -106.7663 33° Northeast  Level FlightAware Approximate
Fri 04:02:00 PM 68.2006 -106.6692 33° Northeast  Level FlightAware Approximate
Fri 04:03:00 PM 68.2562 -106.5715 33° Northeast  Level FlightAware Approximate
Fri 04:04:00 PM 68.3118 -106.4734 33° Northeast  Level FlightAware Approximate
Fri 04:05:00 PM 68.3673 -106.3748 33° Northeast  Level FlightAware Approximate
Fri 04:06:00 PM 68.4227 -106.2757 33° Northeast  Level FlightAware Approximate
Fri 04:07:00 PM 68.4781 -106.1761 33° Northeast  Level FlightAware Approximate
Fri 04:08:00 PM 68.5330 -106.0740 34° Northeast  Level FlightAware Approximate
Fri 04:09:00 PM 68.5877 -105.9713 34° Northeast  Level FlightAware Approximate
Fri 04:10:00 PM 68.6428 -105.8697 33° Northeast  Level FlightAware Approximate
Fri 04:11:00 PM 68.6982 -105.7693 33° Northeast  Level FlightAware Approximate
Fri 04:12:00 PM 68.7535 -105.6684 33° Northeast  Level FlightAware Approximate
Fri 04:13:00 PM 68.8088 -105.5669 34° Northeast  Level FlightAware Approximate
Fri 04:14:00 PM 68.8639 -105.4641 34° Northeast  Level FlightAware Approximate
Fri 04:15:00 PM 68.9188 -105.3607 34° Northeast  Level FlightAware Approximate
Fri 04:16:00 PM 68.9730 -105.2541 36° Northeast  Level FlightAware Approximate
Fri 04:17:00 PM 69.0288 -105.1541 30° Northeast  Level FlightAware Approximate
Fri 04:18:00 PM 69.0853 -105.0586 55° Northeast  Level FlightAware Approximate
Fri 04:19:00 PM 69.1000 -105.1144 270° West  Level FlightAware Approximate
Fri 04:20:00 PM 69.1000 -105.1333 270° West  Level FlightAware Approximate
Fri 04:21:00 PM 69.1080 -105.1383 270° West  Level Estimated
Fri 04:22:00 PM 69.1080 -105.1383 270° West  Level Estimated
Fri 04:23:00 PM 69.1080 -105.1383 270° West  Level Estimated
Fri 04:24:00 PM 69.1080 -105.1383 270° West  Level Estimated

Login

Don't have an account? Register now (free) for customized features, flight alerts, and more!